sensor_id;sensor_type;location;lat;lon;timestamp;temperature;humidity
67763;DHT22;54566;52.022;5.582;2024-01-06T00:00:57;6.10;99.90
67763;DHT22;54566;52.022;5.582;2024-01-06T00:03:23;6.10;99.90
67763;DHT22;54566;52.022;5.582;2024-01-06T00:05:49;6.10;99.90
67763;DHT22;54566;52.022;5.582;2024-01-06T00:08:14;6.10;99.90
67763;DHT22;54566;52.022;5.582;2024-01-06T00:10:40;6.00;99.90
67763;DHT22;54566;52.022;5.582;2024-01-06T00:13:06;6.00;99.90
67763;DHT22;54566;52.022;5.582;2024-01-06T00:15:31;5.90;99.90
67763;DHT22;54566;52.022;5.582;2024-01-06T00:17:57;5.90;99.90
67763;DHT22;54566;52.022;5.582;2024-01-06T00:20:22;5.90;99.90
67763;DHT22;54566;52.022;5.582;2024-01-06T00:22:48;5.80;99.90
67763;DHT22;54566;52.022;5.582;2024-01-06T00:25:17;5.80;99.90
67763;DHT22;54566;52.022;5.582;2024-01-06T00:27:42;5.90;99.90
67763;DHT22;54566;52.022;5.582;2024-01-06T00:30:08;5.80;99.90
67763;DHT22;54566;52.022;5.582;2024-01-06T00:32:34;5.80;99.90
67763;DHT22;54566;52.022;5.582;2024-01-06T00:34:59;5.80;99.90
67763;DHT22;54566;52.022;5.582;2024-01-06T00:37:25;5.80;99.90
67763;DHT22;54566;52.022;5.582;2024-01-06T00:39:51;5.80;99.90
67763;DHT22;54566;52.022;5.582;2024-01-06T00:42:24;5.80;99.90
67763;DHT22;54566;52.022;5.582;2024-01-06T00:44:50;5.70;99.90
67763;DHT22;54566;52.022;5.582;2024-01-06T00:47:16;5.80;99.90
67763;DHT22;54566;52.022;5.582;2024-01-06T00:49:42;5.80;99.90
67763;DHT22;54566;52.022;5.582;2024-01-06T00:52:14;5.70;99.90
67763;DHT22;54566;52.022;5.582;2024-01-06T00:54:40;5.70;99.90
67763;DHT22;54566;52.022;5.582;2024-01-06T00:57:05;5.70;99.90
67763;DHT22;54566;52.022;5.582;2024-01-06T00:59:31;5.80;99.90
67763;DHT22;54566;52.022;5.582;2024-01-06T01:01:56;5.70;99.90
67763;DHT22;54566;52.022;5.582;2024-01-06T01:04:22;5.60;99.90
67763;DHT22;54566;52.022;5.582;2024-01-06T01:06:48;5.70;99.90
67763;DHT22;54566;52.022;5.582;2024-01-06T01:09:14;5.60;99.90
67763;DHT22;54566;52.022;5.582;2024-01-06T01:11:40;5.60;99.90
67763;DHT22;54566;52.022;5.582;2024-01-06T01:14:06;5.60;99.90
67763;DHT22;54566;52.022;5.582;2024-01-06T01:16:32;5.60;99.90
67763;DHT22;54566;52.022;5.582;2024-01-06T01:18:58;5.60;99.90
67763;DHT22;54566;52.022;5.582;2024-01-06T01:21:24;5.50;99.90
67763;DHT22;54566;52.022;5.582;2024-01-06T01:23:49;5.50;99.90
67763;DHT22;54566;52.022;5.582;2024-01-06T01:26:15;5.50;99.90
67763;DHT22;54566;52.022;5.582;2024-01-06T01:28:40;5.60;99.90
67763;DHT22;54566;52.022;5.582;2024-01-06T01:31:06;5.50;99.90
67763;DHT22;54566;52.022;5.582;2024-01-06T01:33:32;5.50;99.90
67763;DHT22;54566;52.022;5.582;2024-01-06T01:35:57;5.50;99.90
67763;DHT22;54566;52.022;5.582;2024-01-06T01:38:23;5.50;99.90
67763;DHT22;54566;52.022;5.582;2024-01-06T01:40:49;5.40;99.90
67763;DHT22;54566;52.022;5.582;2024-01-06T01:43:21;5.40;99.90
67763;DHT22;54566;52.022;5.582;2024-01-06T01:45:50;5.40;99.90
67763;DHT22;54566;52.022;5.582;2024-01-06T01:48:20;5.40;99.90
67763;DHT22;54566;52.022;5.582;2024-01-06T01:50:46;5.30;99.90
67763;DHT22;54566;52.022;5.582;2024-01-06T01:53:13;5.30;99.90
67763;DHT22;54566;52.022;5.582;2024-01-06T01:55:40;5.30;99.90
67763;DHT22;54566;52.022;5.582;2024-01-06T01:58:06;5.30;99.90
67763;DHT22;54566;52.022;5.582;2024-01-06T02:00:33;5.20;99.90
67763;DHT22;54566;52.022;5.582;2024-01-06T02:03:04;5.20;99.90
67763;DHT22;54566;52.022;5.582;2024-01-06T02:05:30;5.10;99.90
67763;DHT22;54566;52.022;5.582;2024-01-06T02:07:57;5.10;99.90
67763;DHT22;54566;52.022;5.582;2024-01-06T02:10:23;5.10;99.90
67763;DHT22;54566;52.022;5.582;2024-01-06T02:12:49;5.00;99.90
67763;DHT22;54566;52.022;5.582;2024-01-06T02:15:17;5.00;99.90
67763;DHT22;54566;52.022;5.582;2024-01-06T02:17:43;5.00;99.90
67763;DHT22;54566;52.022;5.582;2024-01-06T02:20:11;5.00;99.90
67763;DHT22;54566;52.022;5.582;2024-01-06T02:22:37;5.00;99.90
67763;DHT22;54566;52.022;5.582;2024-01-06T02:25:07;5.00;99.90
67763;DHT22;54566;52.022;5.582;2024-01-06T02:27:38;5.00;99.90
67763;DHT22;54566;52.022;5.582;2024-01-06T02:30:05;5.00;99.90
67763;DHT22;54566;52.022;5.582;2024-01-06T02:32:31;5.00;99.90
67763;DHT22;54566;52.022;5.582;2024-01-06T02:34:57;4.90;99.90
67763;DHT22;54566;52.022;5.582;2024-01-06T02:37:22;4.90;99.90
67763;DHT22;54566;52.022;5.582;2024-01-06T02:39:48;5.00;99.90
67763;DHT22;54566;52.022;5.582;2024-01-06T02:42:14;5.00;99.90
67763;DHT22;54566;52.022;5.582;2024-01-06T02:44:40;5.00;99.90
67763;DHT22;54566;52.022;5.582;2024-01-06T02:47:05;5.00;99.90
67763;DHT22;54566;52.022;5.582;2024-01-06T02:49:31;4.90;99.90
67763;DHT22;54566;52.022;5.582;2024-01-06T02:51:57;4.90;99.90
67763;DHT22;54566;52.022;5.582;2024-01-06T02:54:22;4.90;99.90
67763;DHT22;54566;52.022;5.582;2024-01-06T02:56:48;4.90;99.90
67763;DHT22;54566;52.022;5.582;2024-01-06T02:59:14;4.90;99.90
67763;DHT22;54566;52.022;5.582;2024-01-06T03:01:39;4.90;99.90
67763;DHT22;54566;52.022;5.582;2024-01-06T03:04:05;4.90;99.90
67763;DHT22;54566;52.022;5.582;2024-01-06T03:06:31;4.90;99.90
67763;DHT22;54566;52.022;5.582;2024-01-06T03:08:56;4.90;99.90
67763;DHT22;54566;52.022;5.582;2024-01-06T03:11:22;4.90;99.90
67763;DHT22;54566;52.022;5.582;2024-01-06T03:13:48;4.90;99.90
67763;DHT22;54566;52.022;5.582;2024-01-06T03:16:13;4.90;99.90
67763;DHT22;54566;52.022;5.582;2024-01-06T03:18:39;5.00;99.90
67763;DHT22;54566;52.022;5.582;2024-01-06T03:21:05;4.90;99.90
67763;DHT22;54566;52.022;5.582;2024-01-06T03:23:30;4.90;99.90
67763;DHT22;54566;52.022;5.582;2024-01-06T03:25:56;4.90;99.90
67763;DHT22;54566;52.022;5.582;2024-01-06T03:28:21;4.90;99.90
67763;DHT22;54566;52.022;5.582;2024-01-06T03:30:47;4.90;99.90
67763;DHT22;54566;52.022;5.582;2024-01-06T03:33:15;4.90;99.90
67763;DHT22;54566;52.022;5.582;2024-01-06T03:35:41;4.90;99.90
67763;DHT22;54566;52.022;5.582;2024-01-06T03:38:06;4.90;99.90
67763;DHT22;54566;52.022;5.582;2024-01-06T03:40:32;4.90;99.90
67763;DHT22;54566;52.022;5.582;2024-01-06T03:42:58;4.90;99.90
67763;DHT22;54566;52.022;5.582;2024-01-06T03:45:23;4.90;99.90
67763;DHT22;54566;52.022;5.582;2024-01-06T03:47:49;4.90;99.90
67763;DHT22;54566;52.022;5.582;2024-01-06T03:50:15;4.90;99.90
67763;DHT22;54566;52.022;5.582;2024-01-06T03:52:40;5.00;99.90
67763;DHT22;54566;52.022;5.582;2024-01-06T03:55:06;5.00;99.90
67763;DHT22;54566;52.022;5.582;2024-01-06T03:57:32;4.90;99.90
67763;DHT22;54566;52.022;5.582;2024-01-06T03:59:58;4.90;99.90
67763;DHT22;54566;52.022;5.582;2024-01-06T04:02:23;4.90;99.90
67763;DHT22;54566;52.022;5.582;2024-01-06T04:04:49;4.90;99.90
67763;DHT22;54566;52.022;5.582;2024-01-06T04:07:15;4.90;99.90
67763;DHT22;54566;52.022;5.582;2024-01-06T04:09:43;4.80;99.90
67763;DHT22;54566;52.022;5.582;2024-01-06T04:12:09;4.90;99.90
67763;DHT22;54566;52.022;5.582;2024-01-06T04:14:35;4.80;99.90
67763;DHT22;54566;52.022;5.582;2024-01-06T04:17:00;4.80;99.90
67763;DHT22;54566;52.022;5.582;2024-01-06T04:19:26;4.80;99.90
67763;DHT22;54566;52.022;5.582;2024-01-06T04:21:52;4.80;99.90
67763;DHT22;54566;52.022;5.582;2024-01-06T04:24:17;4.80;99.90
67763;DHT22;54566;52.022;5.582;2024-01-06T04:26:43;4.70;99.90
67763;DHT22;54566;52.022;5.582;2024-01-06T04:29:10;4.70;99.90
67763;DHT22;54566;52.022;5.582;2024-01-06T04:31:37;4.70;99.90
67763;DHT22;54566;52.022;5.582;2024-01-06T04:34:03;4.70;99.90
67763;DHT22;54566;52.022;5.582;2024-01-06T04:36:30;4.80;99.90
67763;DHT22;54566;52.022;5.582;2024-01-06T04:38:56;4.70;99.90
67763;DHT22;54566;52.022;5.582;2024-01-06T04:41:21;4.70;99.90
67763;DHT22;54566;52.022;5.582;2024-01-06T04:43:47;4.70;99.90
67763;DHT22;54566;52.022;5.582;2024-01-06T04:46:15;4.60;99.90
67763;DHT22;54566;52.022;5.582;2024-01-06T04:48:41;4.60;99.90
67763;DHT22;54566;52.022;5.582;2024-01-06T04:51:07;4.60;99.90
67763;DHT22;54566;52.022;5.582;2024-01-06T04:53:36;4.60;99.90
67763;DHT22;54566;52.022;5.582;2024-01-06T04:56:02;4.60;99.90
67763;DHT22;54566;52.022;5.582;2024-01-06T04:58:27;4.50;99.90
67763;DHT22;54566;52.022;5.582;2024-01-06T05:00:53;4.50;99.90
67763;DHT22;54566;52.022;5.582;2024-01-06T05:03:19;4.40;99.90
67763;DHT22;54566;52.022;5.582;2024-01-06T05:05:44;4.40;99.90
67763;DHT22;54566;52.022;5.582;2024-01-06T05:08:10;4.40;99.90
67763;DHT22;54566;52.022;5.582;2024-01-06T05:10:36;4.40;99.90
67763;DHT22;54566;52.022;5.582;2024-01-06T05:13:01;4.30;99.90
67763;DHT22;54566;52.022;5.582;2024-01-06T05:15:27;4.30;99.90
67763;DHT22;54566;52.022;5.582;2024-01-06T05:17:53;4.30;99.90
67763;DHT22;54566;52.022;5.582;2024-01-06T05:20:18;4.30;99.90
67763;DHT22;54566;52.022;5.582;2024-01-06T05:22:44;4.30;99.90
67763;DHT22;54566;52.022;5.582;2024-01-06T05:25:10;4.30;99.90
67763;DHT22;54566;52.022;5.582;2024-01-06T05:27:35;4.20;99.90
67763;DHT22;54566;52.022;5.582;2024-01-06T05:30:02;4.30;99.90
67763;DHT22;54566;52.022;5.582;2024-01-06T05:32:28;4.20;99.90
67763;DHT22;54566;52.022;5.582;2024-01-06T05:34:54;4.20;99.90
67763;DHT22;54566;52.022;5.582;2024-01-06T05:37:20;4.20;99.90
67763;DHT22;54566;52.022;5.582;2024-01-06T05:39:45;4.20;99.90
67763;DHT22;54566;52.022;5.582;2024-01-06T05:42:11;4.20;99.90
67763;DHT22;54566;52.022;5.582;2024-01-06T05:44:38;4.20;99.90
67763;DHT22;54566;52.022;5.582;2024-01-06T05:47:04;4.10;99.90
67763;DHT22;54566;52.022;5.582;2024-01-06T05:49:30;4.20;99.90
67763;DHT22;54566;52.022;5.582;2024-01-06T05:51:55;4.10;99.90
67763;DHT22;54566;52.022;5.582;2024-01-06T05:54:21;4.10;99.90
67763;DHT22;54566;52.022;5.582;2024-01-06T05:56:47;4.10;99.90
67763;DHT22;54566;52.022;5.582;2024-01-06T05:59:12;4.00;99.90
67763;DHT22;54566;52.022;5.582;2024-01-06T06:01:41;4.10;99.90
67763;DHT22;54566;52.022;5.582;2024-01-06T06:04:06;4.10;99.90
67763;DHT22;54566;52.022;5.582;2024-01-06T06:06:32;4.10;99.90
67763;DHT22;54566;52.022;5.582;2024-01-06T06:08:58;4.00;99.90
67763;DHT22;54566;52.022;5.582;2024-01-06T06:11:24;4.00;99.90
67763;DHT22;54566;52.022;5.582;2024-01-06T06:13:49;3.90;99.90
67763;DHT22;54566;52.022;5.582;2024-01-06T06:16:15;3.80;99.90
67763;DHT22;54566;52.022;5.582;2024-01-06T06:18:41;3.80;99.90
67763;DHT22;54566;52.022;5.582;2024-01-06T06:21:07;3.80;99.90
67763;DHT22;54566;52.022;5.582;2024-01-06T06:23:34;3.80;99.90
67763;DHT22;54566;52.022;5.582;2024-01-06T06:26:06;3.80;99.90
67763;DHT22;54566;52.022;5.582;2024-01-06T06:28:32;3.80;99.90
67763;DHT22;54566;52.022;5.582;2024-01-06T06:33:49;3.70;99.90
67763;DHT22;54566;52.022;5.582;2024-01-06T06:36:18;3.70;99.90
67763;DHT22;54566;52.022;5.582;2024-01-06T06:38:44;3.70;99.90
67763;DHT22;54566;52.022;5.582;2024-01-06T06:41:15;3.70;99.90
67763;DHT22;54566;52.022;5.582;2024-01-06T06:43:41;3.70;99.90
67763;DHT22;54566;52.022;5.582;2024-01-06T06:46:09;3.70;99.90
67763;DHT22;54566;52.022;5.582;2024-01-06T06:48:46;3.70;99.90
67763;DHT22;54566;52.022;5.582;2024-01-06T06:51:12;3.70;99.90
67763;DHT22;54566;52.022;5.582;2024-01-06T06:53:38;3.70;99.90
67763;DHT22;54566;52.022;5.582;2024-01-06T06:56:06;3.60;99.90
67763;DHT22;54566;52.022;5.582;2024-01-06T06:58:32;3.70;99.90
67763;DHT22;54566;52.022;5.582;2024-01-06T07:00:58;3.70;99.90
67763;DHT22;54566;52.022;5.582;2024-01-06T07:03:33;3.70;99.90
67763;DHT22;54566;52.022;5.582;2024-01-06T07:05:59;3.60;99.90
67763;DHT22;54566;52.022;5.582;2024-01-06T07:08:25;3.60;99.90
67763;DHT22;54566;52.022;5.582;2024-01-06T07:10:51;3.60;99.90
67763;DHT22;54566;52.022;5.582;2024-01-06T07:13:23;3.60;99.90
67763;DHT22;54566;52.022;5.582;2024-01-06T07:15:54;3.60;99.90
67763;DHT22;54566;52.022;5.582;2024-01-06T07:18:23;3.60;99.90
67763;DHT22;54566;52.022;5.582;2024-01-06T07:20:50;3.60;99.90
67763;DHT22;54566;52.022;5.582;2024-01-06T07:23:18;3.60;99.90
67763;DHT22;54566;52.022;5.582;2024-01-06T07:25:47;3.60;99.90
67763;DHT22;54566;52.022;5.582;2024-01-06T07:28:15;3.60;99.90
67763;DHT22;54566;52.022;5.582;2024-01-06T07:48:28;3.50;99.90
67763;DHT22;54566;52.022;5.582;2024-01-06T07:50:59;3.50;99.90
67763;DHT22;54566;52.022;5.582;2024-01-06T08:00:31;3.60;99.90
67763;DHT22;54566;52.022;5.582;2024-01-06T08:03:27;3.50;99.90
67763;DHT22;54566;52.022;5.582;2024-01-06T08:05:56;3.50;99.90
67763;DHT22;54566;52.022;5.582;2024-01-06T08:08:22;3.50;99.90
67763;DHT22;54566;52.022;5.582;2024-01-06T08:10:47;3.50;99.90
67763;DHT22;54566;52.022;5.582;2024-01-06T08:13:14;3.50;99.90
67763;DHT22;54566;52.022;5.582;2024-01-06T08:15:39;3.50;99.90
67763;DHT22;54566;52.022;5.582;2024-01-06T08:18:05;3.60;99.90
67763;DHT22;54566;52.022;5.582;2024-01-06T08:20:31;3.60;99.90
67763;DHT22;54566;52.022;5.582;2024-01-06T08:22:57;3.60;99.90
67763;DHT22;54566;52.022;5.582;2024-01-06T08:25:22;3.60;99.90
67763;DHT22;54566;52.022;5.582;2024-01-06T08:27:53;3.50;99.90
67763;DHT22;54566;52.022;5.582;2024-01-06T08:30:19;3.50;99.90
67763;DHT22;54566;52.022;5.582;2024-01-06T08:32:55;3.60;99.90
67763;DHT22;54566;52.022;5.582;2024-01-06T08:35:52;3.60;99.90
67763;DHT22;54566;52.022;5.582;2024-01-06T08:42:24;3.50;99.90
67763;DHT22;54566;52.022;5.582;2024-01-06T08:48:42;3.50;99.90
67763;DHT22;54566;52.022;5.582;2024-01-06T08:54:51;3.60;99.90
67763;DHT22;54566;52.022;5.582;2024-01-06T08:57:19;3.60;99.90
67763;DHT22;54566;52.022;5.582;2024-01-06T09:03:19;3.60;99.90
67763;DHT22;54566;52.022;5.582;2024-01-06T09:06:33;3.60;99.90
67763;DHT22;54566;52.022;5.582;2024-01-06T09:09:23;3.60;99.90
67763;DHT22;54566;52.022;5.582;2024-01-06T09:19:05;3.70;99.90
67763;DHT22;54566;52.022;5.582;2024-01-06T09:21:57;3.70;99.90
67763;DHT22;54566;52.022;5.582;2024-01-06T09:24:31;3.70;99.90
67763;DHT22;54566;52.022;5.582;2024-01-06T09:26:57;3.70;99.90
67763;DHT22;54566;52.022;5.582;2024-01-06T09:29:30;3.70;99.90
67763;DHT22;54566;52.022;5.582;2024-01-06T09:32:37;3.70;99.90
67763;DHT22;54566;52.022;5.582;2024-01-06T09:38:44;3.70;99.90
67763;DHT22;54566;52.022;5.582;2024-01-06T09:41:18;3.70;99.90
67763;DHT22;54566;52.022;5.582;2024-01-06T09:43:50;3.70;99.90
67763;DHT22;54566;52.022;5.582;2024-01-06T09:46:45;3.70;99.90
67763;DHT22;54566;52.022;5.582;2024-01-06T09:49:11;3.70;99.90
67763;DHT22;54566;52.022;5.582;2024-01-06T10:03:10;3.70;99.90
67763;DHT22;54566;52.022;5.582;2024-01-06T10:05:45;3.70;99.90
67763;DHT22;54566;52.022;5.582;2024-01-06T10:08:11;3.70;99.90
67763;DHT22;54566;52.022;5.582;2024-01-06T10:10:47;3.70;99.90
67763;DHT22;54566;52.022;5.582;2024-01-06T10:13:16;3.70;99.90
67763;DHT22;54566;52.022;5.582;2024-01-06T10:15:52;3.70;99.90
67763;DHT22;54566;52.022;5.582;2024-01-06T10:18:21;3.70;99.90
67763;DHT22;54566;52.022;5.582;2024-01-06T10:20:50;3.70;99.90
67763;DHT22;54566;52.022;5.582;2024-01-06T10:26:50;3.70;99.90
67763;DHT22;54566;52.022;5.582;2024-01-06T10:29:36;3.80;99.90
67763;DHT22;54566;52.022;5.582;2024-01-06T10:32:23;3.80;99.90
67763;DHT22;54566;52.022;5.582;2024-01-06T10:35:04;3.80;99.90
67763;DHT22;54566;52.022;5.582;2024-01-06T10:42:06;3.80;99.90
67763;DHT22;54566;52.022;5.582;2024-01-06T10:48:20;3.70;99.90
67763;DHT22;54566;52.022;5.582;2024-01-06T10:51:11;3.70;99.90
67763;DHT22;54566;52.022;5.582;2024-01-06T10:53:42;3.80;99.90
67763;DHT22;54566;52.022;5.582;2024-01-06T10:59:52;3.80;99.90
67763;DHT22;54566;52.022;5.582;2024-01-06T11:06:11;3.80;99.90
67763;DHT22;54566;52.022;5.582;2024-01-06T11:09:09;3.90;99.90
67763;DHT22;54566;52.022;5.582;2024-01-06T11:11:37;3.90;99.90
67763;DHT22;54566;52.022;5.582;2024-01-06T11:20:04;3.90;99.90
67763;DHT22;54566;52.022;5.582;2024-01-06T11:25:29;3.90;99.90
67763;DHT22;54566;52.022;5.582;2024-01-06T11:28:18;3.90;99.90
67763;DHT22;54566;52.022;5.582;2024-01-06T11:31:04;3.90;99.90
67763;DHT22;54566;52.022;5.582;2024-01-06T11:40:39;4.00;99.90
67763;DHT22;54566;52.022;5.582;2024-01-06T11:43:17;4.00;99.90
67763;DHT22;54566;52.022;5.582;2024-01-06T11:45:50;4.00;99.90
67763;DHT22;54566;52.022;5.582;2024-01-06T11:48:34;4.00;99.90
67763;DHT22;54566;52.022;5.582;2024-01-06T11:51:11;4.00;99.90
67763;DHT22;54566;52.022;5.582;2024-01-06T11:53:43;4.00;99.90
67763;DHT22;54566;52.022;5.582;2024-01-06T11:56:29;4.00;99.90
67763;DHT22;54566;52.022;5.582;2024-01-06T11:58:57;4.00;99.90
67763;DHT22;54566;52.022;5.582;2024-01-06T12:01:39;3.90;99.90
67763;DHT22;54566;52.022;5.582;2024-01-06T12:04:07;3.90;99.90
67763;DHT22;54566;52.022;5.582;2024-01-06T12:07:11;3.90;99.90
67763;DHT22;54566;52.022;5.582;2024-01-06T12:13:19;4.00;99.90
67763;DHT22;54566;52.022;5.582;2024-01-06T12:16:37;3.90;99.90
67763;DHT22;54566;52.022;5.582;2024-01-06T12:19:19;4.00;99.90
67763;DHT22;54566;52.022;5.582;2024-01-06T12:21:57;3.90;99.90
67763;DHT22;54566;52.022;5.582;2024-01-06T12:28:02;3.90;99.90
67763;DHT22;54566;52.022;5.582;2024-01-06T12:30:49;3.90;99.90
67763;DHT22;54566;52.022;5.582;2024-01-06T12:33:20;3.90;99.90
67763;DHT22;54566;52.022;5.582;2024-01-06T12:35:46;3.90;99.90
67763;DHT22;54566;52.022;5.582;2024-01-06T17:30:02;3.40;99.90
67763;DHT22;54566;52.022;5.582;2024-01-06T17:32:28;3.80;99.90
67763;DHT22;54566;52.022;5.582;2024-01-06T17:34:53;4.00;99.90
67763;DHT22;54566;52.022;5.582;2024-01-06T17:37:19;3.80;99.90
67763;DHT22;54566;52.022;5.582;2024-01-06T17:39:46;4.10;99.90
67763;DHT22;54566;52.022;5.582;2024-01-06T17:42:12;4.10;99.90
67763;DHT22;54566;52.022;5.582;2024-01-06T17:44:38;3.80;99.90
67763;DHT22;54566;52.022;5.582;2024-01-06T17:47:08;3.80;99.90
67763;DHT22;54566;52.022;5.582;2024-01-06T17:49:34;3.70;99.90
67763;DHT22;54566;52.022;5.582;2024-01-06T17:52:00;3.60;99.90
67763;DHT22;54566;52.022;5.582;2024-01-06T17:54:26;3.70;99.90
67763;DHT22;54566;52.022;5.582;2024-01-06T17:56:52;3.80;99.90
67763;DHT22;54566;52.022;5.582;2024-01-06T17:59:18;3.80;99.90
67763;DHT22;54566;52.022;5.582;2024-01-06T18:01:44;4.30;99.90
67763;DHT22;54566;52.022;5.582;2024-01-06T18:04:14;4.00;99.90
67763;DHT22;54566;52.022;5.582;2024-01-06T18:06:40;3.70;99.90
67763;DHT22;54566;52.022;5.582;2024-01-06T18:09:08;3.60;99.90
67763;DHT22;54566;52.022;5.582;2024-01-06T18:11:34;3.40;99.90
67763;DHT22;54566;52.022;5.582;2024-01-06T18:14:00;3.30;99.90
67763;DHT22;54566;52.022;5.582;2024-01-06T18:16:26;3.30;99.90
67763;DHT22;54566;52.022;5.582;2024-01-06T18:18:52;3.30;99.90
67763;DHT22;54566;52.022;5.582;2024-01-06T18:21:18;3.20;99.90
67763;DHT22;54566;52.022;5.582;2024-01-06T18:23:43;3.20;99.90
67763;DHT22;54566;52.022;5.582;2024-01-06T18:26:09;3.20;99.90
67763;DHT22;54566;52.022;5.582;2024-01-06T18:28:35;3.20;99.90
67763;DHT22;54566;52.022;5.582;2024-01-06T18:31:16;3.20;99.90
67763;DHT22;54566;52.022;5.582;2024-01-06T18:51:40;2.90;99.90
67763;DHT22;54566;52.022;5.582;2024-01-06T18:54:44;2.90;99.90
67763;DHT22;54566;52.022;5.582;2024-01-06T22:43:50;1.90;99.90
67763;DHT22;54566;52.022;5.582;2024-01-06T22:46:19;1.90;99.90
67763;DHT22;54566;52.022;5.582;2024-01-06T22:48:47;1.90;99.90
67763;DHT22;54566;52.022;5.582;2024-01-06T22:51:16;1.90;99.90
67763;DHT22;54566;52.022;5.582;2024-01-06T22:53:50;2.00;99.90
67763;DHT22;54566;52.022;5.582;2024-01-06T22:56:21;2.00;99.90
67763;DHT22;54566;52.022;5.582;2024-01-06T22:58:54;2.00;99.90
67763;DHT22;54566;52.022;5.582;2024-01-06T23:01:20;2.00;99.90
67763;DHT22;54566;52.022;5.582;2024-01-06T23:04:28;2.00;99.90
67763;DHT22;54566;52.022;5.582;2024-01-06T23:10:25;2.00;99.90
67763;DHT22;54566;52.022;5.582;2024-01-06T23:13:23;2.00;99.90
67763;DHT22;54566;52.022;5.582;2024-01-06T23:19:33;1.90;99.90
67763;DHT22;54566;52.022;5.582;2024-01-06T23:29:13;1.90;99.90
67763;DHT22;54566;52.022;5.582;2024-01-06T23:40:27;1.90;99.90
67763;DHT22;54566;52.022;5.582;2024-01-06T23:42:57;1.80;99.90
67763;DHT22;54566;52.022;5.582;2024-01-06T23:45:26;1.80;99.90
67763;DHT22;54566;52.022;5.582;2024-01-06T23:47:58;1.80;99.90
67763;DHT22;54566;52.022;5.582;2024-01-06T23:50:26;1.80;99.90
67763;DHT22;54566;52.022;5.582;2024-01-06T23:53:09;1.80;99.90
67763;DHT22;54566;52.022;5.582;2024-01-06T23:55:36;1.80;99.90
67763;DHT22;54566;52.022;5.582;2024-01-06T23:58:08;1.80;99.90
